sensor_id;sensor_type;location;lat;lon;timestamp;pressure;altitude;pressure_sealevel;temperature;humidity
71057;BME280;58380;48.312;9.246;2022-09-16T06:55:26;93012.31;;;10.21;100.00
71057;BME280;58380;48.312;9.246;2022-09-16T06:57:51;92984.13;;;10.11;100.00
71057;BME280;58380;48.312;9.246;2022-09-16T07:00:17;92974.63;;;10.10;100.00
71057;BME280;58380;48.312;9.246;2022-09-16T07:02:42;92994.88;;;10.30;100.00
71057;BME280;58380;48.312;9.246;2022-09-16T07:05:08;92943.81;;;9.96;100.00
71057;BME280;58380;48.312;9.246;2022-09-16T07:07:34;92904.38;;;9.75;100.00
71057;BME280;58380;48.312;9.246;2022-09-16T07:10:00;92898.84;;;9.77;100.00
71057;BME280;58380;48.312;9.246;2022-09-16T07:12:27;93003.22;;;10.48;100.00
71057;BME280;58380;48.312;9.246;2022-09-16T07:14:52;92947.47;;;10.10;100.00
71057;BME280;58380;48.312;9.246;2022-09-16T07:17:18;92986.63;;;10.42;100.00
71057;BME280;58380;48.312;9.246;2022-09-16T07:19:49;92928.22;;;10.09;100.00
71057;BME280;58380;48.312;9.246;2022-09-16T07:22:20;92904.84;;;9.92;100.00
71057;BME280;58380;48.312;9.246;2022-09-16T07:24:46;92983.38;;;10.55;100.00
71057;BME280;58380;48.312;9.246;2022-09-16T07:27:11;92907.34;;;10.13;100.00
71057;BME280;58380;48.312;9.246;2022-09-16T07:29:36;92993.06;;;10.70;100.00
71057;BME280;58380;48.312;9.246;2022-09-16T07:32:05;93014.72;;;10.72;100.00
71057;BME280;58380;48.312;9.246;2022-09-16T07:34:30;92953.91;;;10.43;100.00
71057;BME280;58380;48.312;9.246;2022-09-16T07:36:56;93001.25;;;10.74;100.00
71057;BME280;58380;48.312;9.246;2022-09-16T07:39:23;92954.19;;;10.42;100.00
71057;BME280;58380;48.312;9.246;2022-09-16T07:41:50;92974.94;;;10.58;100.00
71057;BME280;58380;48.312;9.246;2022-09-16T07:44:17;92979.44;;;10.53;100.00
71057;BME280;58380;48.312;9.246;2022-09-16T07:46:44;92943.22;;;10.19;100.00
71057;BME280;58380;48.312;9.246;2022-09-16T07:49:12;93015.03;;;10.61;100.00
71057;BME280;58380;48.312;9.246;2022-09-16T07:51:38;93009.06;;;10.45;100.00
71057;BME280;58380;48.312;9.246;2022-09-16T07:54:06;93008.28;;;10.39;100.00
71057;BME280;58380;48.312;9.246;2022-09-16T07:56:37;93004.38;;;10.21;100.00
71057;BME280;58380;48.312;9.246;2022-09-16T07:59:06;93035.00;;;10.17;100.00
71057;BME280;58380;48.312;9.246;2022-09-16T08:01:34;92986.59;;;9.77;100.00
71057;BME280;58380;48.312;9.246;2022-09-16T08:04:00;93038.22;;;9.99;100.00
71057;BME280;58380;48.312;9.246;2022-09-16T08:06:27;93035.13;;;9.76;100.00
71057;BME280;58380;48.312;9.246;2022-09-16T08:08:55;93031.16;;;9.63;100.00
71057;BME280;58380;48.312;9.246;2022-09-16T08:11:25;92997.22;;;9.52;100.00
71057;BME280;58380;48.312;9.246;2022-09-16T08:13:52;93022.47;;;9.63;100.00
71057;BME280;58380;48.312;9.246;2022-09-16T08:16:19;93044.06;;;9.70;100.00
71057;BME280;58380;48.312;9.246;2022-09-16T08:18:49;93019.28;;;9.66;100.00
71057;BME280;58380;48.312;9.246;2022-09-16T08:21:21;93041.41;;;9.85;100.00
71057;BME280;58380;48.312;9.246;2022-09-16T08:23:48;93021.41;;;9.74;100.00
71057;BME280;58380;48.312;9.246;2022-09-16T08:26:15;93009.03;;;9.69;100.00
71057;BME280;58380;48.312;9.246;2022-09-16T08:28:43;93041.66;;;9.89;100.00
71057;BME280;58380;48.312;9.246;2022-09-16T08:31:11;93024.81;;;9.80;100.00
71057;BME280;58380;48.312;9.246;2022-09-16T08:33:40;93047.97;;;9.93;100.00
71057;BME280;58380;48.312;9.246;2022-09-16T08:36:15;93031.16;;;9.74;100.00
71057;BME280;58380;48.312;9.246;2022-09-16T08:38:44;93059.84;;;9.90;100.00
71057;BME280;58380;48.312;9.246;2022-09-16T08:44:40;93040.16;;;9.52;100.00
71057;BME280;58380;48.312;9.246;2022-09-16T08:50:28;93068.88;;;9.59;100.00
71057;BME280;58380;48.312;9.246;2022-09-16T08:52:59;93075.16;;;9.63;100.00
71057;BME280;58380;48.312;9.246;2022-09-16T08:55:36;93077.28;;;9.61;100.00
71057;BME280;58380;48.312;9.246;2022-09-16T08:58:22;93068.34;;;9.57;100.00
71057;BME280;58380;48.312;9.246;2022-09-16T09:01:02;93084.16;;;9.46;100.00
71057;BME280;58380;48.312;9.246;2022-09-16T09:03:37;93065.97;;;9.09;100.00
71057;BME280;58380;48.312;9.246;2022-09-16T09:09:26;93109.44;;;9.42;100.00
71057;BME280;58380;48.312;9.246;2022-09-16T09:14:39;93044.59;;;8.85;100.00
71057;BME280;58380;48.312;9.246;2022-09-16T09:20:29;93068.31;;;9.26;100.00
71057;BME280;58380;48.312;9.246;2022-09-16T09:23:30;93102.06;;;9.70;100.00
71057;BME280;58380;48.312;9.246;2022-09-16T09:26:21;93071.47;;;9.74;100.00
71057;BME280;58380;48.312;9.246;2022-09-16T09:29:09;93083.31;;;9.97;100.00
71057;BME280;58380;48.312;9.246;2022-09-16T09:43:18;93085.16;;;10.77;96.34
71057;BME280;58380;48.312;9.246;2022-09-16T09:45:59;93082.50;;;10.82;97.48
71057;BME280;58380;48.312;9.246;2022-09-16T09:48:37;93096.34;;;10.58;93.86
71057;BME280;58380;48.312;9.246;2022-09-16T09:51:20;93099.56;;;10.40;95.08
71057;BME280;58380;48.312;9.246;2022-09-16T09:54:02;93081.69;;;10.11;95.04
71057;BME280;58380;48.312;9.246;2022-09-16T09:56:44;93041.44;;;9.65;95.40
71057;BME280;58380;48.312;9.246;2022-09-16T10:02:15;93044.59;;;9.77;97.55
71057;BME280;58380;48.312;9.246;2022-09-16T10:04:43;93097.00;;;10.09;98.04
71057;BME280;58380;48.312;9.246;2022-09-16T10:07:18;93086.44;;;10.14;97.08
71057;BME280;58380;48.312;9.246;2022-09-16T10:09:56;93050.91;;;9.91;97.39
71057;BME280;58380;48.312;9.246;2022-09-16T10:12:28;93101.44;;;10.24;96.93
71057;BME280;58380;48.312;9.246;2022-09-16T10:14:59;93072.47;;;10.14;97.21
71057;BME280;58380;48.312;9.246;2022-09-16T10:17:49;92980.88;;;9.55;98.50
71057;BME280;58380;48.312;9.246;2022-09-16T10:20:34;92937.69;;;9.40;93.61
71057;BME280;58380;48.312;9.246;2022-09-16T10:23:08;92964.78;;;9.61;96.13
71057;BME280;58380;48.312;9.246;2022-09-16T10:25:41;92905.63;;;9.07;93.04
71057;BME280;58380;48.312;9.246;2022-09-16T10:28:24;92935.56;;;9.42;96.13
71057;BME280;58380;48.312;9.246;2022-09-16T10:30:54;92983.72;;;9.79;90.94
71057;BME280;58380;48.312;9.246;2022-09-16T10:33:27;92919.53;;;9.39;92.36
71057;BME280;58380;48.312;9.246;2022-09-16T10:36:06;92907.16;;;9.34;94.68
71057;BME280;58380;48.312;9.246;2022-09-16T10:38:53;93045.44;;;10.48;94.17
71057;BME280;58380;48.312;9.246;2022-09-16T10:41:24;93069.91;;;10.69;94.07
71057;BME280;58380;48.312;9.246;2022-09-16T10:43:56;93088.41;;;11.08;96.46
71057;BME280;58380;48.312;9.246;2022-09-16T10:46:27;92908.19;;;10.03;93.18
71057;BME280;58380;48.312;9.246;2022-09-16T10:48:59;93081.31;;;11.43;91.65
71057;BME280;58380;48.312;9.246;2022-09-16T10:51:33;93090.22;;;11.18;89.03
71057;BME280;58380;48.312;9.246;2022-09-16T10:54:00;93086.25;;;11.15;91.96
71057;BME280;58380;48.312;9.246;2022-09-16T10:56:33;93100.03;;;11.12;89.73
71057;BME280;58380;48.312;9.246;2022-09-16T10:59:11;93069.72;;;10.99;92.03
71057;BME280;58380;48.312;9.246;2022-09-16T11:08:52;93061.66;;;10.80;90.74
71057;BME280;58380;48.312;9.246;2022-09-16T11:11:02;93091.53;;;10.76;92.08
71057;BME280;58380;48.312;9.246;2022-09-16T11:19:11;93100.63;;;10.44;92.22
71057;BME280;58380;48.312;9.246;2022-09-16T11:30:12;93115.31;;;10.61;91.81
71057;BME280;58380;48.312;9.246;2022-09-16T11:38:25;93121.97;;;10.48;86.75
71057;BME280;58380;48.312;9.246;2022-09-16T11:41:12;93075.34;;;10.12;86.48
71057;BME280;58380;48.312;9.246;2022-09-16T11:44:37;93121.44;;;10.46;87.54
71057;BME280;58380;48.312;9.246;2022-09-16T11:47:30;93088.50;;;10.38;84.44
71057;BME280;58380;48.312;9.246;2022-09-16T11:50:38;93067.38;;;10.48;83.44
71057;BME280;58380;48.312;9.246;2022-09-16T11:59:30;93106.53;;;10.80;78.71
71057;BME280;58380;48.312;9.246;2022-09-16T12:05:24;93073.06;;;10.66;75.22
71057;BME280;58380;48.312;9.246;2022-09-16T12:11:20;93079.41;;;10.65;76.60
71057;BME280;58380;48.312;9.246;2022-09-16T12:13:56;93076.19;;;10.78;81.20
71057;BME280;58380;48.312;9.246;2022-09-16T12:16:39;93107.78;;;11.38;74.55
71057;BME280;58380;48.312;9.246;2022-09-16T12:19:14;93032.69;;;11.10;76.61
71057;BME280;58380;48.312;9.246;2022-09-16T12:22:12;93088.78;;;11.70;75.47
71057;BME280;58380;48.312;9.246;2022-09-16T12:25:08;93083.84;;;11.93;76.26
71057;BME280;58380;48.312;9.246;2022-09-16T12:27:40;93088.59;;;12.20;75.44
71057;BME280;58380;48.312;9.246;2022-09-16T12:35:32;93064.47;;;11.68;75.46
71057;BME280;58380;48.312;9.246;2022-09-16T12:38:02;93114.00;;;11.92;68.55
71057;BME280;58380;48.312;9.246;2022-09-16T12:40:33;93082.78;;;11.59;72.27
71057;BME280;58380;48.312;9.246;2022-09-16T12:43:49;93130.75;;;11.77;70.58
71057;BME280;58380;48.312;9.246;2022-09-16T12:46:39;93135.88;;;11.63;70.78
71057;BME280;58380;48.312;9.246;2022-09-16T12:53:03;93127.81;;;11.49;73.07
71057;BME280;58380;48.312;9.246;2022-09-16T13:01:26;93056.47;;;11.10;75.95
71057;BME280;58380;48.312;9.246;2022-09-16T13:04:03;93096.16;;;11.39;76.04
71057;BME280;58380;48.312;9.246;2022-09-16T13:06:47;93047.34;;;11.31;76.08
71057;BME280;58380;48.312;9.246;2022-09-16T13:09:26;93076.50;;;11.84;74.78
71057;BME280;58380;48.312;9.246;2022-09-16T13:11:59;93076.22;;;11.86;75.32
71057;BME280;58380;48.312;9.246;2022-09-16T13:14:30;93048.41;;;11.59;76.02
71057;BME280;58380;48.312;9.246;2022-09-16T13:16:59;93051.31;;;11.58;76.59
71057;BME280;58380;48.312;9.246;2022-09-16T13:25:00;93051.38;;;11.53;77.66
71057;BME280;58380;48.312;9.246;2022-09-16T13:27:39;93062.69;;;11.93;75.82
71057;BME280;58380;48.312;9.246;2022-09-16T13:37:47;93090.78;;;11.89;74.46
71057;BME280;58380;48.312;9.246;2022-09-16T13:40:24;93100.91;;;11.76;74.91
71057;BME280;58380;48.312;9.246;2022-09-16T13:45:41;93043.56;;;11.03;77.19
71057;BME280;58380;48.312;9.246;2022-09-16T13:48:21;93114.66;;;11.39;78.14
71057;BME280;58380;48.312;9.246;2022-09-16T13:50:56;93113.47;;;11.21;78.56
71057;BME280;58380;48.312;9.246;2022-09-16T13:53:32;93099.88;;;10.93;78.77
71057;BME280;58380;48.312;9.246;2022-09-16T13:59:21;93116.84;;;10.77;78.52
71057;BME280;58380;48.312;9.246;2022-09-16T14:02:16;93111.16;;;10.49;79.09
71057;BME280;58380;48.312;9.246;2022-09-16T14:14:09;93118.88;;;10.95;78.98
71057;BME280;58380;48.312;9.246;2022-09-16T14:16:42;93122.25;;;11.06;78.60
71057;BME280;58380;48.312;9.246;2022-09-16T14:19:25;93113.31;;;10.97;80.26
71057;BME280;58380;48.312;9.246;2022-09-16T14:22:20;93111.75;;;10.96;76.69
71057;BME280;58380;48.312;9.246;2022-09-16T14:24:47;93101.44;;;10.94;77.08
71057;BME280;58380;48.312;9.246;2022-09-16T14:30:18;93113.00;;;11.48;77.56
71057;BME280;58380;48.312;9.246;2022-09-16T14:32:45;93105.38;;;11.41;78.94
71057;BME280;58380;48.312;9.246;2022-09-16T14:35:22;93124.84;;;11.56;77.75
71057;BME280;58380;48.312;9.246;2022-09-16T14:37:54;93091.13;;;11.37;75.10
71057;BME280;58380;48.312;9.246;2022-09-16T14:40:25;93076.47;;;11.55;77.41
71057;BME280;58380;48.312;9.246;2022-09-16T14:43:04;93075.91;;;11.93;72.83
71057;BME280;58380;48.312;9.246;2022-09-16T14:45:32;93094.06;;;12.04;74.16
71057;BME280;58380;48.312;9.246;2022-09-16T14:48:05;93099.53;;;12.13;70.05
71057;BME280;58380;48.312;9.246;2022-09-16T14:50:42;93096.75;;;11.99;65.44
71057;BME280;58380;48.312;9.246;2022-09-16T14:55:55;93035.13;;;11.35;70.11
71057;BME280;58380;48.312;9.246;2022-09-16T14:58:22;93077.97;;;11.66;70.46
71057;BME280;58380;48.312;9.246;2022-09-16T15:01:00;93074.47;;;11.76;69.77
71057;BME280;58380;48.312;9.246;2022-09-16T15:06:23;93084.00;;;11.72;69.33
71057;BME280;58380;48.312;9.246;2022-09-16T15:09:03;93080.88;;;11.36;71.14
71057;BME280;58380;48.312;9.246;2022-09-16T15:11:46;93059.16;;;10.99;70.46
71057;BME280;58380;48.312;9.246;2022-09-16T15:14:17;93104.44;;;11.27;71.73
71057;BME280;58380;48.312;9.246;2022-09-16T15:16:46;93094.63;;;11.28;71.52
71057;BME280;58380;48.312;9.246;2022-09-16T15:19:26;93070.34;;;11.60;70.56
71057;BME280;58380;48.312;9.246;2022-09-16T15:21:56;93100.97;;;12.00;70.47
71057;BME280;58380;48.312;9.246;2022-09-16T15:24:24;93088.34;;;12.21;70.42
71057;BME280;58380;48.312;9.246;2022-09-16T15:26:53;93077.84;;;12.35;69.95
71057;BME280;58380;48.312;9.246;2022-09-16T15:31:49;93070.53;;;12.27;68.96
71057;BME280;58380;48.312;9.246;2022-09-16T15:39:37;93071.25;;;12.33;68.79
71057;BME280;58380;48.312;9.246;2022-09-16T15:44:47;93085.66;;;11.97;70.40
71057;BME280;58380;48.312;9.246;2022-09-16T15:47:27;93086.47;;;11.93;71.01
71057;BME280;58380;48.312;9.246;2022-09-16T15:50:08;93061.41;;;11.85;74.12
71057;BME280;58380;48.312;9.246;2022-09-16T15:58:38;93055.81;;;12.21;70.92
71057;BME280;58380;48.312;9.246;2022-09-16T16:06:09;93063.41;;;11.69;73.18
71057;BME280;58380;48.312;9.246;2022-09-16T16:08:49;93094.16;;;11.60;73.48
71057;BME280;58380;48.312;9.246;2022-09-16T16:11:20;93049.75;;;11.22;74.10
71057;BME280;58380;48.312;9.246;2022-09-16T16:13:47;93067.25;;;11.18;74.53
71057;BME280;58380;48.312;9.246;2022-09-16T16:16:15;93068.56;;;11.21;75.62
71057;BME280;58380;48.312;9.246;2022-09-16T16:18:43;93074.66;;;11.16;75.94
71057;BME280;58380;48.312;9.246;2022-09-16T16:21:13;93079.25;;;11.35;76.09
71057;BME280;58380;48.312;9.246;2022-09-16T16:23:40;93063.44;;;11.30;76.25
71057;BME280;58380;48.312;9.246;2022-09-16T16:26:08;93079.81;;;11.32;76.98
71057;BME280;58380;48.312;9.246;2022-09-16T16:28:35;93091.06;;;11.13;76.46
71057;BME280;58380;48.312;9.246;2022-09-16T16:31:09;93033.50;;;10.61;77.79
71057;BME280;58380;48.312;9.246;2022-09-16T16:33:40;93044.88;;;10.61;78.77
71057;BME280;58380;48.312;9.246;2022-09-16T16:36:06;93073.59;;;10.68;79.62
71057;BME280;58380;48.312;9.246;2022-09-16T16:38:32;93079.69;;;10.63;78.53
71057;BME280;58380;48.312;9.246;2022-09-16T16:40:57;93093.66;;;10.69;79.61
71057;BME280;58380;48.312;9.246;2022-09-16T16:43:23;93091.84;;;10.59;79.90
71057;BME280;58380;48.312;9.246;2022-09-16T16:45:55;93097.09;;;10.64;79.08
71057;BME280;58380;48.312;9.246;2022-09-16T16:48:22;93035.78;;;10.18;79.23
71057;BME280;58380;48.312;9.246;2022-09-16T16:50:59;93073.44;;;10.49;80.48
71057;BME280;58380;48.312;9.246;2022-09-16T16:53:28;93095.03;;;10.61;80.28
71057;BME280;58380;48.312;9.246;2022-09-16T16:56:02;93080.31;;;10.40;78.60
71057;BME280;58380;48.312;9.246;2022-09-16T16:58:30;93081.66;;;10.27;78.42
71057;BME280;58380;48.312;9.246;2022-09-16T17:01:06;93094.59;;;10.28;79.05
71057;BME280;58380;48.312;9.246;2022-09-16T17:03:37;93084.56;;;10.15;78.71
71057;BME280;58380;48.312;9.246;2022-09-16T17:06:04;93079.84;;;10.12;80.41
71057;BME280;58380;48.312;9.246;2022-09-16T17:08:31;93096.41;;;10.23;80.80
71057;BME280;58380;48.312;9.246;2022-09-16T17:11:13;93071.19;;;9.96;79.70
71057;BME280;58380;48.312;9.246;2022-09-16T17:13:50;93087.50;;;10.08;79.71
71057;BME280;58380;48.312;9.246;2022-09-16T17:16:21;93093.31;;;10.00;80.25
71057;BME280;58380;48.312;9.246;2022-09-16T17:18:49;93092.00;;;9.98;80.33
71057;BME280;58380;48.312;9.246;2022-09-16T17:21:21;93084.09;;;9.92;80.52
71057;BME280;58380;48.312;9.246;2022-09-16T17:23:58;93076.72;;;9.89;81.27
71057;BME280;58380;48.312;9.246;2022-09-16T17:26:24;93082.53;;;9.81;80.00
71057;BME280;58380;48.312;9.246;2022-09-16T17:28:52;93068.59;;;9.60;81.42
71057;BME280;58380;48.312;9.246;2022-09-16T17:31:27;93083.59;;;9.70;81.27
71057;BME280;58380;48.312;9.246;2022-09-16T17:33:56;93071.22;;;9.55;82.19
71057;BME280;58380;48.312;9.246;2022-09-16T17:36:26;93097.06;;;9.74;81.44
71057;BME280;58380;48.312;9.246;2022-09-16T17:38:55;93085.19;;;9.66;81.55
71057;BME280;58380;48.312;9.246;2022-09-16T17:41:23;93079.91;;;9.56;83.15
71057;BME280;58380;48.312;9.246;2022-09-16T17:43:51;93073.88;;;9.50;83.73
71057;BME280;58380;48.312;9.246;2022-09-16T17:46:17;93088.09;;;9.39;83.63
71057;BME280;58380;48.312;9.246;2022-09-16T17:48:44;93093.09;;;9.40;83.11
71057;BME280;58380;48.312;9.246;2022-09-16T17:51:11;93023.00;;;8.88;83.27
71057;BME280;58380;48.312;9.246;2022-09-16T17:53:38;93059.09;;;9.03;84.08
71057;BME280;58380;48.312;9.246;2022-09-16T17:58:31;93094.41;;;9.27;84.46
71057;BME280;58380;48.312;9.246;2022-09-16T18:01:10;93072.78;;;9.10;83.87
71057;BME280;58380;48.312;9.246;2022-09-16T18:03:42;93094.66;;;9.26;84.07
71057;BME280;58380;48.312;9.246;2022-09-16T18:08:42;93100.97;;;9.15;85.11
71057;BME280;58380;48.312;9.246;2022-09-16T18:11:10;93093.31;;;9.08;85.47
71057;BME280;58380;48.312;9.246;2022-09-16T18:13:37;93103.59;;;9.04;85.40
71057;BME280;58380;48.312;9.246;2022-09-16T18:16:09;93082.22;;;8.85;85.80
71057;BME280;58380;48.312;9.246;2022-09-16T18:18:38;93110.16;;;8.92;86.76
71057;BME280;58380;48.312;9.246;2022-09-16T18:21:08;93089.84;;;8.77;86.70
71057;BME280;58380;48.312;9.246;2022-09-16T18:23:35;93110.63;;;8.78;87.04
71057;BME280;58380;48.312;9.246;2022-09-16T18:26:09;93097.72;;;8.67;87.63
71057;BME280;58380;48.312;9.246;2022-09-16T18:28:37;93116.41;;;8.75;87.19
71057;BME280;58380;48.312;9.246;2022-09-16T18:31:06;93114.56;;;8.71;88.17
71057;BME280;58380;48.312;9.246;2022-09-16T18:33:37;93117.94;;;8.66;87.92
71057;BME280;58380;48.312;9.246;2022-09-16T18:36:13;93143.78;;;8.69;88.26
71057;BME280;58380;48.312;9.246;2022-09-16T18:38:40;93115.78;;;8.42;88.15
71057;BME280;58380;48.312;9.246;2022-09-16T18:41:15;93152.44;;;8.70;88.75
71057;BME280;58380;48.312;9.246;2022-09-16T18:43:44;93122.13;;;8.52;88.78
71057;BME280;58380;48.312;9.246;2022-09-16T18:46:16;93149.84;;;8.75;87.88
71057;BME280;58380;48.312;9.246;2022-09-16T18:48:46;93144.34;;;8.81;87.73
71057;BME280;58380;48.312;9.246;2022-09-16T18:51:21;93155.94;;;8.91;88.84
71057;BME280;58380;48.312;9.246;2022-09-16T18:53:53;93147.78;;;8.92;88.15
71057;BME280;58380;48.312;9.246;2022-09-16T18:56:23;93155.97;;;9.01;88.28
71057;BME280;58380;48.312;9.246;2022-09-16T18:58:50;93121.44;;;8.82;87.84
71057;BME280;58380;48.312;9.246;2022-09-16T19:01:31;93146.25;;;9.06;87.81
71057;BME280;58380;48.312;9.246;2022-09-16T19:04:00;93133.06;;;8.96;88.60
71057;BME280;58380;48.312;9.246;2022-09-16T19:06:30;93127.28;;;8.94;88.19
71057;BME280;58380;48.312;9.246;2022-09-16T19:09:00;93154.97;;;9.17;87.83
71057;BME280;58380;48.312;9.246;2022-09-16T19:11:29;93118.06;;;8.92;88.24
71057;BME280;58380;48.312;9.246;2022-09-16T19:13:56;93144.66;;;9.11;86.61
71057;BME280;58380;48.312;9.246;2022-09-16T19:16:21;93145.19;;;9.13;87.24
71057;BME280;58380;48.312;9.246;2022-09-16T19:18:51;93156.53;;;9.23;86.43
71057;BME280;58380;48.312;9.246;2022-09-16T19:21:18;93158.69;;;9.26;86.43
71057;BME280;58380;48.312;9.246;2022-09-16T19:23:46;93138.63;;;9.15;86.50
71057;BME280;58380;48.312;9.246;2022-09-16T19:26:19;93141.00;;;9.12;86.60
71057;BME280;58380;48.312;9.246;2022-09-16T19:28:45;93143.66;;;9.17;87.06
71057;BME280;58380;48.312;9.246;2022-09-16T19:31:12;93130.47;;;9.06;86.40
71057;BME280;58380;48.312;9.246;2022-09-16T19:33:39;93155.50;;;9.24;88.02
71057;BME280;58380;48.312;9.246;2022-09-16T19:36:17;93104.56;;;8.78;89.00
71057;BME280;58380;48.312;9.246;2022-09-16T19:38:45;93142.31;;;9.04;89.80
71057;BME280;58380;48.312;9.246;2022-09-16T19:41:13;93170.50;;;9.09;90.96
71057;BME280;58380;48.312;9.246;2022-09-16T19:43:39;93199.97;;;9.11;92.35
71057;BME280;58380;48.312;9.246;2022-09-16T19:46:14;93200.19;;;8.99;93.06
71057;BME280;58380;48.312;9.246;2022-09-16T19:48:42;93194.31;;;8.76;95.23
71057;BME280;58380;48.312;9.246;2022-09-16T19:51:12;93209.50;;;8.59;94.66
71057;BME280;58380;48.312;9.246;2022-09-16T19:53:40;93189.94;;;8.39;94.78
71057;BME280;58380;48.312;9.246;2022-09-16T19:56:09;93205.19;;;8.42;96.25
71057;BME280;58380;48.312;9.246;2022-09-16T19:58:37;93189.66;;;8.41;97.51
71057;BME280;58380;48.312;9.246;2022-09-16T20:01:13;93186.47;;;8.39;96.78
71057;BME280;58380;48.312;9.246;2022-09-16T20:03:41;93158.97;;;8.14;96.64
71057;BME280;58380;48.312;9.246;2022-09-16T20:06:15;93157.34;;;8.08;97.00
71057;BME280;58380;48.312;9.246;2022-09-16T20:08:46;93149.44;;;8.03;96.43
71057;BME280;58380;48.312;9.246;2022-09-16T20:11:17;93176.97;;;8.33;98.17
71057;BME280;58380;48.312;9.246;2022-09-16T20:13:50;93146.13;;;8.18;98.06
71057;BME280;58380;48.312;9.246;2022-09-16T20:16:18;93171.72;;;8.38;97.82
71057;BME280;58380;48.312;9.246;2022-09-16T20:18:44;93155.13;;;8.32;98.43
71057;BME280;58380;48.312;9.246;2022-09-16T20:21:16;93142.22;;;8.26;98.12
71057;BME280;58380;48.312;9.246;2022-09-16T20:23:48;93121.41;;;8.19;98.04
71057;BME280;58380;48.312;9.246;2022-09-16T20:26:15;93145.41;;;8.33;98.31
71057;BME280;58380;48.312;9.246;2022-09-16T20:28:48;93166.25;;;8.39;98.46
71057;BME280;58380;48.312;9.246;2022-09-16T20:31:21;93104.47;;;7.99;98.65
71057;BME280;58380;48.312;9.246;2022-09-16T20:33:48;93160.16;;;8.34;98.57
71057;BME280;58380;48.312;9.246;2022-09-16T20:36:17;93161.94;;;8.28;95.85
71057;BME280;58380;48.312;9.246;2022-09-16T20:38:44;93160.38;;;8.27;95.08
71057;BME280;58380;48.312;9.246;2022-09-16T20:41:16;93159.78;;;8.15;95.49
71057;BME280;58380;48.312;9.246;2022-09-16T20:43:44;93163.13;;;8.05;95.02
71057;BME280;58380;48.312;9.246;2022-09-16T20:48:39;93136.34;;;7.71;93.28
71057;BME280;58380;48.312;9.246;2022-09-16T20:51:13;93181.38;;;7.85;94.17
71057;BME280;58380;48.312;9.246;2022-09-16T20:53:41;93194.31;;;7.91;95.56
71057;BME280;58380;48.312;9.246;2022-09-16T20:56:12;93166.84;;;7.72;93.71
71057;BME280;58380;48.312;9.246;2022-09-16T20:58:38;93124.63;;;7.46;95.24
71057;BME280;58380;48.312;9.246;2022-09-16T21:01:06;93169.19;;;7.73;94.31
71057;BME280;58380;48.312;9.246;2022-09-16T21:03:35;93162.09;;;7.69;94.59
71057;BME280;58380;48.312;9.246;2022-09-16T21:06:19;93156.69;;;7.53;95.18
71057;BME280;58380;48.312;9.246;2022-09-16T21:08:46;93173.63;;;7.68;94.74
71057;BME280;58380;48.312;9.246;2022-09-16T21:11:16;93186.97;;;7.61;95.12
71057;BME280;58380;48.312;9.246;2022-09-16T21:13:45;93130.53;;;7.31;95.38
71057;BME280;58380;48.312;9.246;2022-09-16T21:16:15;93156.25;;;7.29;95.47
71057;BME280;58380;48.312;9.246;2022-09-16T21:18:41;93195.56;;;7.51;96.21
71057;BME280;58380;48.312;9.246;2022-09-16T21:21:10;93205.16;;;7.41;95.68
71057;BME280;58380;48.312;9.246;2022-09-16T21:23:38;93166.59;;;7.14;95.60
71057;BME280;58380;48.312;9.246;2022-09-16T21:26:06;93196.44;;;7.35;95.24
71057;BME280;58380;48.312;9.246;2022-09-16T21:28:41;93184.25;;;7.24;95.52
71057;BME280;58380;48.312;9.246;2022-09-16T21:31:12;93192.63;;;7.21;95.81
71057;BME280;58380;48.312;9.246;2022-09-16T21:33:40;93192.88;;;7.19;96.65
71057;BME280;58380;48.312;9.246;2022-09-16T21:36:10;93160.88;;;6.95;95.77
71057;BME280;58380;48.312;9.246;2022-09-16T21:38:38;93148.66;;;6.84;95.03
71057;BME280;58380;48.312;9.246;2022-09-16T21:41:10;93161.22;;;7.04;95.34
71057;BME280;58380;48.312;9.246;2022-09-16T21:43:41;93182.63;;;7.18;95.57
71057;BME280;58380;48.312;9.246;2022-09-16T21:46:14;93161.47;;;7.02;94.69
